27 | 11 | 2022

Daten Vortag

Klimadaten von 10m Höhe gemessen, Station  

Datum / Zeit Intervall min Luftfeuchte % Temperatur °C Absoluter Luftdruck hPa Wind m/s Windböhen m/s Wind Richtung Relative Luftdruck hPa Taupunkt °C Windchill °C Niederschlag mm
25-11-2022 00:08 5 93 3.2 1012.5 0.0 0.0 W 1017.0 2.2 3.2 0.0
25-11-2022 00:09 5 93 3.2 1012.4 0.0 0.0 W 1016.9 2.2 3.2 0.0
25-11-2022 00:15 5 94 3.3 1012.2 0.0 0.0 NE 1016.7 2.4 3.3 0.0
25-11-2022 00:20 5 94 3.3 1012.3 0.0 0.0 NE 1016.8 2.4 3.3 0.0
25-11-2022 00:25 5 94 3.4 1012.5 0.0 0.0 NE 1017.0 2.5 3.4 0.0
25-11-2022 00:30 5 94 3.4 1012.3 0.0 0.0 E 1016.8 2.5 3.4 0.0
25-11-2022 00:35 5 94 3.5 1012.4 0.0 0.0 E 1016.9 2.6 3.5 0.0
25-11-2022 00:40 5 94 3.5 1012.4 0.0 1.1 E 1016.9 2.6 3.5 0.0
25-11-2022 00:45 5 94 3.5 1012.4 0.0 0.0 N 1016.9 2.6 3.5 0.0
25-11-2022 00:50 5 94 3.6 1012.3 0.0 1.1 E 1016.8 2.7 3.6 0.0
25-11-2022 00:55 5 94 3.7 1012.2 0.0 1.1 E 1016.7 2.8 3.7 0.0
25-11-2022 01:00 5 95 3.7 1012.3 0.0 0.0 E 1016.8 3.0 3.7 0.0
25-11-2022 01:05 5 95 3.8 1012.4 0.0 0.0 SE 1016.9 3.1 3.8 0.0
25-11-2022 01:10 5 95 4.1 1012.4 1.1 2.5 S 1016.9 3.4 4.1 0.0
25-11-2022 01:15 5 95 4.4 1012.2 0.0 2.5 S 1016.7 3.7 4.4 0.0
25-11-2022 01:20 5 95 4.5 1012.2 1.1 2.5 S 1016.7 3.8 4.5 0.0
25-11-2022 01:25 5 96 4.6 1012.3 0.0 1.1 SE 1016.8 4.0 4.6 0.0
25-11-2022 01:30 5 96 4.7 1012.2 0.0 1.1 E 1016.7 4.1 4.7 0.0
25-11-2022 01:35 5 96 4.7 1012.3 1.1 2.5 S 1016.8 4.1 4.7 0.0
25-11-2022 01:40 5 96 4.7 1012.2 0.0 1.1 S 1016.7 4.1 4.7 0.0
25-11-2022 01:45 5 96 4.7 1012.0 1.1 2.5 S 1016.5 4.1 4.7 0.0
25-11-2022 01:50 5 96 4.8 1012.3 1.1 2.5 SE 1016.8 4.2 4.8 0.0
25-11-2022 01:55 5 96 4.8 1011.9 3.6 6.1 SE 1016.4 4.2 4.8 0.0
25-11-2022 02:00 5 96 4.9 1012.0 0.0 1.1 SE 1016.5 4.3 4.9 0.0
25-11-2022 02:05 5 96 4.9 1012.1 1.1 2.5 E 1016.6 4.3 4.9 0.0
25-11-2022 02:10 5 97 4.9 1012.0 0.0 1.1 SW 1016.5 4.5 4.9 0.0
25-11-2022 02:15 5 97 4.9 1012.3 0.0 1.1 E 1016.8 4.5 4.9 0.0
25-11-2022 02:20 5 97 4.9 1012.3 1.1 2.5 SE 1016.8 4.5 4.9 0.0
25-11-2022 02:25 5 97 4.8 1012.2 2.5 5.0 E 1016.7 4.4 4.8 0.0
25-11-2022 02:30 5 97 4.8 1012.1 3.6 5.0 SE 1016.6 4.4 4.8 0.0
25-11-2022 02:35 5 97 4.8 1012.2 0.0 1.1 SE 1016.7 4.4 4.8 0.0
25-11-2022 02:40 5 97 4.8 1012.1 1.1 3.6 S 1016.6 4.4 4.8 0.0
25-11-2022 02:45 5 98 4.7 1012.3 3.6 5.0 S 1016.8 4.4 4.7 0.0
25-11-2022 02:50 5 98 4.6 1012.3 2.5 3.6 SE 1016.8 4.3 4.6 0.0
25-11-2022 02:55 5 98 4.6 1012.3 2.5 3.6 E 1016.8 4.3 4.6 0.0
25-11-2022 03:00 5 98 4.6 1012.3 2.5 5.0 S 1016.8 4.3 4.6 0.0
25-11-2022 03:05 5 98 4.6 1012.1 5.0 7.2 SE 1016.6 4.3 4.6 0.0
25-11-2022 03:10 5 98 4.6 1012.1 2.5 3.6 S 1016.6 4.3 4.6 0.0
25-11-2022 03:15 5 99 4.5 1012.3 3.6 6.1 SW 1016.8 4.4 4.5 0.0
25-11-2022 03:20 5 99 4.5 1012.4 1.1 2.5 SE 1016.9 4.4 4.5 0.0
25-11-2022 03:25 5 99 4.4 1012.2 2.5 3.6 S 1016.7 4.3 4.4 0.0
25-11-2022 03:30 5 99 4.3 1012.6 1.1 2.5 SE 1017.1 4.2 4.3 0.0
25-11-2022 03:35 5 99 4.2 1012.5 2.5 5.0 SE 1017.0 4.1 4.2 0.0
25-11-2022 03:40 5 99 4.1 1012.3 3.6 5.0 SE 1016.8 4.0 4.1 0.0
25-11-2022 03:45 5 99 4.0 1012.5 3.6 5.0 SE 1017.0 3.9 4.0 0.0
25-11-2022 03:50 5 99 3.9 1012.5 2.5 3.6 S 1017.0 3.8 3.9 0.0
25-11-2022 03:55 5 99 3.9 1012.3 1.1 2.5 SE 1016.8 3.8 3.9 0.0
25-11-2022 04:00 5 99 3.9 1012.4 1.1 2.5 S 1016.9 3.8 3.9 0.0
25-11-2022 04:05 5 99 4.0 1012.3 2.5 3.6 SE 1016.8 3.9 4.0 0.0
25-11-2022 04:10 5 99 3.9 1012.2 2.5 5.0 E 1016.7 3.8 3.9 0.0
25-11-2022 04:15 5 99 3.9 1012.2 1.1 2.5 E 1016.7 3.8 3.9 0.0
25-11-2022 04:20 5 99 3.8 1012.2 1.1 2.5 SE 1016.7 3.7 3.8 0.0
25-11-2022 04:25 5 99 3.8 1012.4 1.1 2.5 E 1016.9 3.7 3.8 0.0
25-11-2022 04:30 5 99 3.8 1012.1 0.0 1.1 W 1016.6 3.7 3.8 0.0
25-11-2022 04:35 5 99 3.8 1012.2 1.1 1.1 E 1016.7 3.7 3.8 0.0
25-11-2022 04:40 5 99 3.8 1012.5 0.0 1.1 SE 1017.0 3.7 3.8 0.0
25-11-2022 04:45 5 99 3.7 1012.3 0.0 2.5 S 1016.8 3.6 3.7 0.0
25-11-2022 04:50 5 99 3.7 1012.3 1.1 2.5 SE 1016.8 3.6 3.7 0.0
25-11-2022 04:55 5 99 3.7 1012.2 1.1 2.5 NE 1016.7 3.6 3.7 0.0
25-11-2022 05:00 5 99 3.7 1012.2 2.5 3.6 E 1016.7 3.6 3.7 0.0
25-11-2022 05:05 5 99 3.7 1012.2 0.0 1.1 SE 1016.7 3.6 3.7 0.0
25-11-2022 05:10 5 99 3.7 1012.5 1.1 2.5 SE 1017.0 3.6 3.7 0.0
25-11-2022 05:15 5 99 3.7 1012.2 1.1 2.5 SE 1016.7 3.6 3.7 0.0
25-11-2022 05:20 5 99 3.7 1012.2 2.5 3.6 SE 1016.7 3.6 3.7 0.0
25-11-2022 05:25 5 99 3.7 1012.2 1.1 2.5 SE 1016.7 3.6 3.7 0.0
25-11-2022 05:30 5 99 3.6 1012.4 1.1 2.5 S 1016.9 3.5 3.6 0.0
25-11-2022 05:35 5 99 3.6 1012.5 2.5 3.6 E 1017.0 3.5 3.6 0.0
25-11-2022 05:40 5 99 3.6 1012.2 2.5 3.6 SEE 1016.7 3.5 3.6 0.0
25-11-2022 05:45 5 99 3.5 1012.4 2.5 3.6 SE 1016.9 3.4 3.5 0.0
25-11-2022 05:50 5 99 3.5 1012.3 3.6 5.0 E 1016.8 3.4 3.5 0.0
25-11-2022 05:55 5 99 3.6 1012.5 2.5 3.6 E 1017.0 3.5 3.6 0.0
25-11-2022 06:00 5 99 3.6 1012.4 1.1 3.6 S 1016.9 3.5 3.6 0.0
25-11-2022 06:05 5 99 3.7 1012.3 3.6 6.1 E 1016.8 3.6 3.7 0.0
25-11-2022 06:10 5 99 3.7 1012.4 1.1 2.5 S 1016.9 3.6 3.7 0.0
25-11-2022 06:15 5 99 3.6 1012.6 1.1 1.1 E 1017.1 3.5 3.6 0.0
25-11-2022 06:20 5 99 3.6 1012.4 1.1 2.5 E 1016.9 3.5 3.6 0.0
25-11-2022 06:25 5 99 3.5 1012.6 1.1 2.5 SW 1017.1 3.4 3.5 0.0
25-11-2022 06:30 5 99 3.4 1012.7 2.5 3.6 E 1017.2 3.3 3.4 0.0
25-11-2022 06:35 5 99 3.3 1012.5 1.1 2.5 SE 1017.0 3.2 3.3 0.0
25-11-2022 06:40 5 99 3.2 1012.3 1.1 2.5 E 1016.8 3.1 3.2 0.0
25-11-2022 06:45 5 99 3.2 1012.6 0.0 0.0 E 1017.1 3.1 3.2 0.0
25-11-2022 06:50 5 99 3.2 1012.6 2.5 3.6 E 1017.1 3.1 3.2 0.0
25-11-2022 06:55 5 99 3.2 1012.5 2.5 3.6 NE 1017.0 3.1 3.2 0.0
25-11-2022 07:00 5 99 3.2 1012.4 0.0 1.1 E 1016.9 3.1 3.2 0.0
25-11-2022 07:05 5 99 3.2 1012.6 3.6 6.1 SE 1017.1 3.1 3.2 0.0
25-11-2022 07:10 5 99 3.2 1012.8 1.1 2.5 SE 1017.3 3.1 3.2 0.0
25-11-2022 07:15 5 99 3.2 1012.5 3.6 5.0 E 1017.0 3.1 3.2 0.0
25-11-2022 07:20 5 99 3.2 1012.6 1.1 1.1 SE 1017.1 3.1 3.2 0.0
25-11-2022 07:25 5 99 3.2 1013.0 2.5 5.0 SE 1017.5 3.1 3.2 0.0
25-11-2022 07:30 5 99 3.2 1012.8 1.1 2.5 E 1017.3 3.1 3.2 0.0
25-11-2022 07:35 5 99 3.2 1012.8 1.1 2.5 E 1017.3 3.1 3.2 0.0
25-11-2022 07:40 5 99 3.1 1013.1 0.0 2.5 SE 1017.6 3.0 3.1 0.0
25-11-2022 07:45 5 99 3.1 1012.9 2.5 3.6 E 1017.4 3.0 3.1 0.0
25-11-2022 07:50 5 99 3.1 1013.1 0.0 1.1 E 1017.6 3.0 3.1 0.0
25-11-2022 07:55 5 99 3.1 1013.2 2.5 3.6 N 1017.7 3.0 3.1 0.0
25-11-2022 08:00 5 99 3.0 1013.1 1.1 2.5 E 1017.6 2.9 3.0 0.0
25-11-2022 08:05 5 99 3.0 1013.1 1.1 2.5 SE 1017.6 2.9 3.0 0.0
25-11-2022 08:10 5 99 3.0 1013.0 3.6 5.0 E 1017.5 2.9 3.0 0.0
25-11-2022 08:15 5 99 3.0 1013.0 1.1 2.5 SE 1017.5 2.9 3.0 0.0
25-11-2022 08:20 5 99 3.0 1012.9 1.1 2.5 SE 1017.4 2.9 3.0 0.0
25-11-2022 08:25 5 99 3.0 1013.0 2.5 3.6 E 1017.5 2.9 3.0 0.0
25-11-2022 08:30 5 99 3.0 1013.3 0.0 1.1 NE 1017.8 2.9 3.0 0.0
25-11-2022 08:35 5 99 3.0 1013.4 1.1 2.5 E 1017.9 2.9 3.0 0.0
25-11-2022 08:40 5 99 3.0 1013.4 1.1 2.5 SWW 1017.9 2.9 3.0 0.0
25-11-2022 08:45 5 99 3.0 1013.5 2.5 3.6 S 1018.0 2.9 3.0 0.0
25-11-2022 08:50 5 99 3.0 1013.6 2.5 3.6 S 1018.1 2.9 3.0 0.0
25-11-2022 08:55 5 99 3.0 1013.3 3.6 5.0 E 1017.8 2.9 3.0 0.0
25-11-2022 09:00 5 99 3.0 1013.4 2.5 5.0 SEE 1017.9 2.9 3.0 0.0
25-11-2022 09:05 5 99 3.0 1013.3 2.5 5.0 E 1017.8 2.9 3.0 0.0
25-11-2022 09:10 5 99 3.1 1013.4 2.5 3.6 E 1017.9 3.0 3.1 0.0
25-11-2022 09:15 5 99 3.1 1013.3 3.6 6.1 S 1017.8 3.0 3.1 0.0
25-11-2022 09:20 5 99 3.2 1013.5 3.6 5.0 E 1018.0 3.1 3.2 0.0
25-11-2022 09:25 5 99 3.3 1013.3 2.5 3.6 SE 1017.8 3.2 3.3 0.0
25-11-2022 09:30 5 99 3.3 1013.4 1.1 3.6 E 1017.9 3.2 3.3 0.0
25-11-2022 09:35 5 99 3.3 1013.2 1.1 3.6 E 1017.7 3.2 3.3 0.0
25-11-2022 09:40 5 99 3.4 1013.3 2.5 5.0 SEE 1017.8 3.3 3.4 0.0
25-11-2022 09:45 5 99 3.5 1013.3 0.0 1.1 SE 1017.8 3.4 3.5 0.0
25-11-2022 09:50 5 99 3.5 1013.2 1.1 3.6 E 1017.7 3.4 3.5 0.0
25-11-2022 09:55 5 99 3.6 1013.6 1.1 2.5 SE 1018.1 3.5 3.6 0.0
25-11-2022 10:00 5 99 3.7 1013.5 2.5 3.6 E 1018.0 3.6 3.7 0.0
25-11-2022 10:05 5 99 3.7 1013.6 5.0 6.1 SE 1018.1 3.6 3.7 0.0
25-11-2022 10:10 5 99 3.8 1013.4 2.5 3.6 S 1017.9 3.7 3.8 0.0
25-11-2022 10:15 5 99 3.9 1013.4 1.1 3.6 SE 1017.9 3.8 3.9 0.0
25-11-2022 10:20 5 99 4.0 1013.4 0.0 1.1 S 1017.9 3.9 4.0 0.0
25-11-2022 10:25 5 99 4.1 1013.4 1.1 3.6 SE 1017.9 4.0 4.1 0.0
25-11-2022 10:30 5 99 4.2 1013.4 3.6 5.0 NE 1017.9 4.1 4.2 0.0
25-11-2022 10:35 5 99 4.3 1013.4 5.0 6.1 E 1017.9 4.2 4.3 0.0
25-11-2022 10:40 5 99 4.3 1013.5 3.6 6.1 E 1018.0 4.2 4.3 0.0
25-11-2022 10:45 5 99 4.4 1013.6 2.5 3.6 S 1018.1 4.3 4.4 0.0
25-11-2022 10:50 5 99 4.6 1013.5 1.1 2.5 SE 1018.0 4.5 4.6 0.0
25-11-2022 10:55 5 99 4.7 1013.4 3.6 5.0 S 1017.9 4.6 4.7 0.0
25-11-2022 11:00 5 99 4.7 1013.4 3.6 5.0 E 1017.9 4.6 4.7 0.0
25-11-2022 11:05 5 99 4.7 1013.5 3.6 6.1 E 1018.0 4.6 4.7 0.0
25-11-2022 11:10 5 99 4.8 1013.3 5.0 6.1 S 1017.8 4.7 4.8 0.3
25-11-2022 11:15 5 99 5.0 1013.4 3.6 5.0 E 1017.9 4.9 5.0 0.3
25-11-2022 11:20 5 99 5.0 1013.2 3.6 6.1 SE 1017.7 4.9 5.0 0.3
25-11-2022 11:25 5 99 5.1 1013.3 0.0 2.5 E 1017.8 5.0 5.1 0.3
25-11-2022 11:30 5 99 5.1 1013.2 2.5 5.0 SE 1017.7 5.0 5.1 0.3
25-11-2022 11:35 5 99 5.2 1013.4 5.0 6.1 E 1017.9 5.1 5.2 0.3
25-11-2022 11:40 5 99 5.2 1013.2 3.6 6.1 E 1017.7 5.1 5.2 0.3
25-11-2022 11:45 5 99 5.2 1013.3 3.6 6.1 SEE 1017.8 5.1 5.2 0.3
25-11-2022 11:50 5 99 5.3 1013.4 2.5 3.6 NE 1017.9 5.2 5.3 0.3
25-11-2022 11:55 5 99 5.3 1013.3 3.6 6.1 E 1017.8 5.2 5.3 0.3
25-11-2022 12:00 5 99 5.3 1013.3 3.6 5.0 SE 1017.8 5.2 5.3 0.3
25-11-2022 12:05 5 99 5.4 1013.1 2.5 3.6 E 1017.6 5.3 5.4 0.3
25-11-2022 12:10 5 99 5.5 1013.3 3.6 6.1 E 1017.8 5.4 5.5 0.0
25-11-2022 12:15 5 99 5.5 1013.3 3.6 5.0 E 1017.8 5.4 5.5 0.0
25-11-2022 12:20 5 99 5.5 1013.6 3.6 6.1 E 1018.1 5.4 5.5 0.0
25-11-2022 12:25 5 99 5.5 1013.3 2.5 3.6 SE 1017.8 5.4 5.5 0.0
25-11-2022 12:30 5 99 5.6 1013.4 2.5 3.6 NE 1017.9 5.5 5.6 0.0
25-11-2022 12:35 5 99 5.7 1013.3 3.6 6.1 NE 1017.8 5.6 5.7 0.0
25-11-2022 12:47 5 99 5.8 1013.5 3.6 5.0 E 1018.0 5.7 5.8 0.0
25-11-2022 12:52 5 99 5.7 1013.5 3.6 5.0 E 1018.0 5.6 5.7 0.0
25-11-2022 12:57 5 99 5.7 1013.5 6.1 7.2 S 1018.0 5.6 5.7 0.0
25-11-2022 13:02 5 99 5.7 1013.6 2.5 3.6 SE 1018.1 5.6 5.7 0.0
25-11-2022 13:07 5 99 5.7 1013.4 3.6 5.0 E 1017.9 5.6 5.7 0.0
25-11-2022 13:12 5 99 5.8 1013.6 1.1 2.5 E 1018.1 5.7 5.8 0.0
25-11-2022 13:17 5 99 5.8 1013.6 2.5 5.0 SE 1018.1 5.7 5.8 0.0
25-11-2022 13:22 5 99 5.8 1013.6 3.6 5.0 E 1018.1 5.7 5.8 0.0
25-11-2022 13:27 5 99 5.9 1013.5 1.1 2.5 SE 1018.0 5.8 5.9 0.0
25-11-2022 13:32 5 99 5.9 1013.5 1.1 2.5 SE 1018.0 5.8 5.9 0.0
25-11-2022 13:37 5 99 5.9 1013.4 1.1 3.6 E 1017.9 5.8 5.9 0.0
25-11-2022 13:42 5 99 5.9 1013.5 2.5 3.6 E 1018.0 5.8 5.9 0.0
25-11-2022 13:47 5 99 6.0 1013.5 1.1 2.5 SE 1018.0 5.9 6.0 0.0
25-11-2022 13:52 5 99 6.0 1013.5 2.5 3.6 NE 1018.0 5.9 6.0 0.0
25-11-2022 13:57 5 99 6.0 1013.5 3.6 5.0 E 1018.0 5.9 6.0 0.0
25-11-2022 14:02 5 99 6.1 1013.5 5.0 6.1 SE 1018.0 6.0 6.1 0.0
25-11-2022 14:07 5 99 6.1 1013.6 3.6 6.1 S 1018.1 6.0 6.1 0.0
25-11-2022 14:12 5 99 6.1 1013.5 1.1 5.0 S 1018.0 6.0 6.1 0.0
25-11-2022 14:17 5 99 6.2 1013.5 1.1 3.6 E 1018.0 6.1 6.2 0.0
25-11-2022 14:22 5 99 6.2 1013.6 2.5 3.6 SE 1018.1 6.1 6.2 0.0
25-11-2022 14:27 5 99 6.2 1013.7 3.6 5.0 E 1018.2 6.1 6.2 0.0
25-11-2022 14:32 5 99 6.2 1013.8 1.1 2.5 SE 1018.3 6.1 6.2 0.0
25-11-2022 14:37 5 99 6.2 1013.8 2.5 3.6 SE 1018.3 6.1 6.2 0.0
25-11-2022 14:42 5 99 6.2 1013.7 1.1 2.5 E 1018.2 6.1 6.2 0.0
25-11-2022 14:47 5 99 6.2 1013.6 2.5 5.0 SE 1018.1 6.1 6.2 0.0
25-11-2022 14:52 5 99 6.2 1013.8 2.5 3.6 SE 1018.3 6.1 6.2 0.0
25-11-2022 14:57 5 99 6.2 1013.7 2.5 3.6 SE 1018.2 6.1 6.2 0.0
25-11-2022 15:02 5 99 6.2 1013.8 2.5 2.5 SSE 1018.3 6.1 6.2 0.0
25-11-2022 15:07 5 99 6.2 1013.8 2.5 3.6 E 1018.3 6.1 6.2 0.0
25-11-2022 15:12 5 99 6.2 1013.9 1.1 2.5 SE 1018.4 6.1 6.2 0.0
25-11-2022 15:17 5 99 6.2 1013.8 2.5 3.6 SE 1018.3 6.1 6.2 0.0
25-11-2022 15:22 5 99 6.2 1013.8 1.1 2.5 SE 1018.3 6.1 6.2 0.0
25-11-2022 15:27 5 99 6.1 1014.0 1.1 2.5 SW 1018.5 6.0 6.1 0.0
25-11-2022 15:32 5 99 6.1 1014.1 0.0 1.1 S 1018.6 6.0 6.1 0.0
25-11-2022 15:37 5 99 6.0 1014.2 2.5 3.6 S 1018.7 5.9 6.0 0.0
25-11-2022 15:42 5 99 6.0 1014.2 2.5 5.0 S 1018.7 5.9 6.0 0.0
25-11-2022 15:47 5 99 6.0 1014.3 5.0 6.1 SE 1018.8 5.9 6.0 0.0
25-11-2022 15:52 5 99 6.0 1014.3 1.1 3.6 SE 1018.8 5.9 6.0 0.0
25-11-2022 15:57 5 99 5.9 1014.1 1.1 2.5 SW 1018.6 5.8 5.9 0.0
25-11-2022 16:02 5 99 5.9 1014.3 2.5 3.6 S 1018.8 5.8 5.9 0.0
25-11-2022 16:07 5 99 5.9 1014.4 3.6 6.1 S 1018.9 5.8 5.9 0.0
25-11-2022 16:12 5 99 5.9 1014.5 2.5 2.5 E 1019.0 5.8 5.9 0.0
25-11-2022 16:17 5 99 5.9 1014.5 1.1 2.5 S 1019.0 5.8 5.9 0.0
25-11-2022 16:22 5 99 5.8 1014.5 1.1 2.5 N 1019.0 5.7 5.8 0.0
25-11-2022 16:27 5 99 5.8 1014.4 3.6 5.0 SE 1018.9 5.7 5.8 0.3
25-11-2022 16:32 5 99 5.8 1014.4 1.1 2.5 SE 1018.9 5.7 5.8 0.3
25-11-2022 16:37 5 99 5.8 1014.4 2.5 3.6 E 1018.9 5.7 5.8 0.3
25-11-2022 16:42 5 99 5.8 1014.4 1.1 2.5 E 1018.9 5.7 5.8 0.3
25-11-2022 16:47 5 99 5.8 1014.6 0.0 1.1 SE 1019.1 5.7 5.8 0.3
25-11-2022 16:52 5 99 5.8 1014.7 0.0 1.1 E 1019.2 5.7 5.8 0.3
25-11-2022 16:57 5 99 5.8 1014.8 1.1 2.5 SE 1019.3 5.7 5.8 0.6
25-11-2022 17:02 5 99 5.8 1014.9 0.0 1.1 SE 1019.4 5.7 5.8 0.6
25-11-2022 17:07 5 99 5.8 1014.9 0.0 1.1 SSE 1019.4 5.7 5.8 0.6
25-11-2022 17:12 5 99 5.8 1014.6 1.1 1.1 S 1019.1 5.7 5.8 0.9
25-11-2022 17:17 5 99 5.8 1014.7 1.1 2.5 S 1019.2 5.7 5.8 0.9
25-11-2022 17:22 5 99 5.8 1014.8 1.1 2.5 E 1019.3 5.7 5.8 1.2
25-11-2022 17:27 5 99 5.8 1014.9 0.0 1.1 E 1019.4 5.7 5.8 0.9
25-11-2022 17:32 5 99 5.8 1014.7 0.0 0.0 E 1019.2 5.7 5.8 1.2
25-11-2022 17:37 5 99 5.8 1015.0 0.0 1.1 SE 1019.5 5.7 5.8 1.2
25-11-2022 17:42 5 99 5.8 1014.8 0.0 1.1 SE 1019.3 5.7 5.8 1.5
25-11-2022 17:47 5 99 5.8 1015.1 1.1 2.5 E 1019.6 5.7 5.8 1.5
25-11-2022 17:52 5 99 5.8 1015.0 0.0 0.0 SE 1019.5 5.7 5.8 1.5
25-11-2022 17:57 5 99 5.8 1015.1 0.0 1.1 SE 1019.6 5.7 5.8 1.2
25-11-2022 18:02 5 99 5.8 1015.1 0.0 2.5 S 1019.6 5.7 5.8 1.2
25-11-2022 18:07 5 99 5.8 1015.0 0.0 0.0 S 1019.5 5.7 5.8 1.2
25-11-2022 18:12 5 99 5.8 1015.3 0.0 1.1 SE 1019.8 5.7 5.8 1.2
25-11-2022 18:17 5 99 5.8 1015.0 1.1 2.5 E 1019.5 5.7 5.8 1.2
25-11-2022 18:22 5 99 5.8 1015.1 1.1 2.5 S 1019.6 5.7 5.8 0.9
25-11-2022 18:27 5 99 5.8 1015.3 0.0 1.1 E 1019.8 5.7 5.8 0.9
25-11-2022 18:32 5 99 5.8 1015.2 0.0 1.1 NE 1019.7 5.7 5.8 0.6
25-11-2022 18:37 5 99 5.8 1015.3 0.0 1.1 S 1019.8 5.7 5.8 0.6
25-11-2022 18:42 5 99 5.8 1015.4 1.1 2.5 SEE 1019.9 5.7 5.8 0.3
25-11-2022 18:47 5 99 5.9 1015.5 1.1 2.5 SE 1020.0 5.8 5.9 0.3
25-11-2022 18:52 5 99 5.9 1015.5 0.0 1.1 S 1020.0 5.8 5.9 0.3
25-11-2022 18:57 5 99 5.9 1015.4 0.0 1.1 SE 1019.9 5.8 5.9 0.3
25-11-2022 19:02 5 99 5.9 1015.8 1.1 2.5 S 1020.3 5.8 5.9 0.3
25-11-2022 19:07 5 99 5.9 1015.6 1.1 2.5 SE 1020.1 5.8 5.9 0.6
25-11-2022 19:12 5 99 5.9 1015.7 0.0 1.1 S 1020.2 5.8 5.9 0.3
25-11-2022 19:17 5 99 5.9 1015.8 0.0 1.1 SEE 1020.3 5.8 5.9 0.3
25-11-2022 19:22 5 99 5.9 1015.9 0.0 1.1 E 1020.4 5.8 5.9 0.3
25-11-2022 19:27 5 99 5.9 1016.0 0.0 1.1 S 1020.5 5.8 5.9 0.3
25-11-2022 19:32 5 99 5.9 1015.8 0.0 1.1 SE 1020.3 5.8 5.9 0.3
25-11-2022 19:37 5 99 5.9 1016.0 0.0 1.1 S 1020.5 5.8 5.9 0.3
25-11-2022 19:42 5 99 5.9 1016.3 1.1 1.1 S 1020.8 5.8 5.9 0.3
25-11-2022 19:47 5 99 5.9 1016.1 0.0 0.0 S 1020.6 5.8 5.9 0.3
25-11-2022 19:52 5 99 5.9 1016.1 0.0 0.0 S 1020.6 5.8 5.9 0.3
25-11-2022 19:57 5 99 5.9 1016.1 0.0 1.1 S 1020.6 5.8 5.9 0.6
25-11-2022 20:02 5 99 5.9 1016.2 1.1 2.5 S 1020.7 5.8 5.9 0.6
25-11-2022 20:07 5 99 5.9 1016.4 1.1 2.5 SE 1020.9 5.8 5.9 0.3
25-11-2022 20:12 5 99 5.9 1016.3 0.0 0.0 SE 1020.8 5.8 5.9 0.3
25-11-2022 20:17 5 99 5.9 1016.4 0.0 1.1 S 1020.9 5.8 5.9 0.3
25-11-2022 20:22 5 99 5.9 1016.4 0.0 1.1 S 1020.9 5.8 5.9 0.3
25-11-2022 20:27 5 99 5.9 1016.5 0.0 1.1 S 1021.0 5.8 5.9 0.3
25-11-2022 20:32 5 99 5.9 1016.4 0.0 1.1 S 1020.9 5.8 5.9 0.3
25-11-2022 20:37 5 99 5.9 1016.5 0.0 0.0 SW 1021.0 5.8 5.9 0.3
25-11-2022 20:42 5 99 5.9 1016.6 0.0 1.1 SE 1021.1 5.8 5.9 0.3
25-11-2022 20:47 5 99 5.9 1016.8 0.0 1.1 E 1021.3 5.8 5.9 0.3
25-11-2022 20:52 5 99 5.9 1016.6 0.0 1.1 SE 1021.1 5.8 5.9 0.3
25-11-2022 20:57 5 99 5.9 1016.9 0.0 0.0 SE 1021.4 5.8 5.9 0.0
25-11-2022 21:02 5 99 5.9 1016.8 0.0 1.1 SE 1021.3 5.8 5.9 0.0
25-11-2022 21:07 5 99 5.9 1016.9 0.0 0.0 E 1021.4 5.8 5.9 0.0
25-11-2022 21:12 5 99 5.9 1017.0 0.0 0.0 E 1021.5 5.8 5.9 0.0
25-11-2022 21:17 5 99 6.0 1017.2 0.0 0.0 E 1021.7 5.9 6.0 0.3
25-11-2022 21:22 5 99 6.0 1017.1 0.0 0.0 E 1021.6 5.9 6.0 0.3
25-11-2022 21:27 5 99 6.0 1017.1 0.0 1.1 E 1021.6 5.9 6.0 0.3
25-11-2022 21:32 5 99 6.0 1017.2 0.0 0.0 NE 1021.7 5.9 6.0 0.3
25-11-2022 21:37 5 99 6.0 1017.2 1.1 2.5 E 1021.7 5.9 6.0 0.3
25-11-2022 21:42 5 99 6.0 1017.2 1.1 2.5 E 1021.7 5.9 6.0 0.3
25-11-2022 21:47 5 99 6.0 1017.4 0.0 0.0 SW 1021.9 5.9 6.0 0.3
25-11-2022 21:52 5 99 6.0 1017.5 0.0 1.1 S 1022.0 5.9 6.0 0.3
25-11-2022 21:57 5 99 6.0 1017.6 0.0 0.0 S 1022.1 5.9 6.0 0.3
25-11-2022 22:02 5 99 6.0 1017.5 0.0 1.1 SE 1022.0 5.9 6.0 0.3
25-11-2022 22:07 5 99 6.0 1017.7 0.0 1.1 SE 1022.2 5.9 6.0 0.3
25-11-2022 22:12 5 99 6.0 1017.5 0.0 1.1 E 1022.0 5.9 6.0 0.3
25-11-2022 22:17 5 99 6.0 1017.5 0.0 1.1 E 1022.0 5.9 6.0 0.0
25-11-2022 22:22 5 99 6.0 1017.3 3.6 5.0 E 1021.8 5.9 6.0 0.0
25-11-2022 22:27 5 99 6.0 1017.3 0.0 1.1 SE 1021.8 5.9 6.0 0.0
25-11-2022 22:32 5 99 6.0 1017.7 1.1 2.5 E 1022.2 5.9 6.0 0.0
25-11-2022 22:37 5 99 6.0 1017.7 0.0 1.1 E 1022.2 5.9 6.0 0.0
25-11-2022 22:42 5 99 6.0 1017.8 0.0 1.1 E 1022.3 5.9 6.0 0.0
25-11-2022 22:47 5 99 6.0 1017.9 0.0 0.0 S 1022.4 5.9 6.0 0.0
25-11-2022 22:52 5 99 6.0 1017.8 0.0 0.0 SW 1022.3 5.9 6.0 0.0
25-11-2022 22:57 5 99 6.1 1018.0 0.0 1.1 S 1022.5 6.0 6.1 0.0
25-11-2022 23:02 5 99 6.1 1017.9 0.0 0.0 E 1022.4 6.0 6.1 0.0
25-11-2022 23:07 5 99 6.1 1018.0 0.0 1.1 S 1022.5 6.0 6.1 0.0
25-11-2022 23:12 5 99 6.1 1018.2 0.0 1.1 S 1022.7 6.0 6.1 0.0
25-11-2022 23:17 5 99 6.0 1017.9 1.1 2.5 SE 1022.4 5.9 6.0 0.0
25-11-2022 23:22 5 99 6.0 1018.0 0.0 1.1 SW 1022.5 5.9 6.0 0.0
25-11-2022 23:27 5 99 6.0 1018.1 0.0 2.5 S 1022.6 5.9 6.0 0.0
25-11-2022 23:32 5 99 6.0 1018.6 1.1 2.5 S 1023.1 5.9 6.0 0.0
25-11-2022 23:37 5 99 6.0 1018.2 0.0 0.0 S 1022.7 5.9 6.0 0.0
25-11-2022 23:42 5 99 6.0 1018.4 0.0 1.1 E 1022.9 5.9 6.0 0.0
25-11-2022 23:47 5 99 6.0 1018.2 0.0 1.1 E 1022.7 5.9 6.0 0.0
25-11-2022 23:52 5 99 6.0 1018.6 0.0 1.1 E 1023.1 5.9 6.0 0.0
25-11-2022 23:57 5 99 6.0 1018.3 1.1 1.1 E 1022.8 5.9 6.0 0.0

 

Tagesdaten                                                                       Tabelle: 07:00  UHR 

STATIONHÖHELUFTD.TEMP.T-MinT-MaxU%RR1RR12SSSDDFFFXWetter+WolkenBöen
UFS TW Ems 0 ------ --- --- --- --- ---- --- --- -- --- --- --- ---
UFS Deutsche Bucht 0 ------ --- --- --- --- ---- --- --- -- --- --- --- ---
Helgoland 4 1009.5 8.5 8.1 9.8 91 2.6 3 0 S 24 39 leichter Regen ---
List/Sylt 26 1010.1 5.5 5.3 6.8 93 0.0 0 0 -- --- ---   ---
Schleswig 43 1012.3 3.9 3.7 7.8 97 0.0 0 0 SO 9 16 Dunst oder flacher Nebel ---
Leuchtturm Kiel 5 1013.2 5.3 4.2 8.0 94 ---- --- --- S 28 35 --- ---
Kiel 27 1013.0 4.4 4.1 8.0 97 0.0 0 0 S 14 23 Dunst oder flacher Nebel ---
Fehmarn 3 1014.2 4.8 4.7 7.2 100 0.0 0 0 SO 12 22 --- ---
Arkona 42 1016.2 5.4 4.5 5.9 97 0.0 0 0 S 17 24 Dunst oder flacher Nebel ---
Norderney 11 ------ --- --- --- --- ---- --- --- -- --- --- --- ---
Leuchtt. Alte Weser 32 1010.1 6.6 6.5 8.4 89 ---- --- --- S 36 --- --- ---
Cuxhaven 5 1011.2 5.6 4.7 6.8 89 0.3 0 0 -- --- 27 leichter Regen ---
Hamburg-Flh. 11 1013.1 4.3 3.2 5.6 95 0.0 0 0 SO 16 24 --- ---
Schwerin 59 1014.8 3.1 2.0 4.8 99 0.0 0 0 S 6 13 Dunst oder flacher Nebel ---
Rostock 4 1015.1 3.6 3.2 5.7 99 0.0 0 0 SO 14 23 Nebel ---
Greifswald 2 1016.2 3.4 3.3 4.1 100 0.0 0 0 SO 11 19 Nebel ---
Emden 0 1009.8 7.1 5.5 7.9 93 0.2 2 0 S 16 28 leichter Regen ---
Bremen-Flh. 5 1012.0 4.6 3.5 5.3 92 0.3 0 --- SO 13 18 Regen ---
Lüchow 17 1014.7 0.0 -0.6 5.6 99 0.0 0 0 O 4 6 Nebel ---
Marnitz 81 1015.6 1.4 0.0 5.2 100 0.0 0 0 S 5 12   ---
Waren 70 1015.7 3.5 3.3 4.3 100 0.0 0 0 SO 5 10 Nebel ---
Neuruppin 38 1015.8 2.2 1.5 3.6 99 0.0 0 0 O 5 10 --- ---
Angermünde 56 1016.7 2.0 1.9 2.7 100 0.0 0 0 S 7 13 Nebel ---
Münster/Osnabr.-Flh. 48 1011.9 5.7 4.4 5.8 94 0.3 1 0 SO 6 15 leichter Regen ---
Hannover-Flh. 59 1012.9 5.2 4.2 7.9 90 0.0 0 0 SO 12 21 --- ---
Magdeburg 76 1015.3 2.0 1.7 5.2 98 0.0 0 0 SO 7 10 --- ---
Potsdam 81 1016.0 2.8 1.4 4.7 98 0.0 0 0 SO 14 21 Dunst oder flacher Nebel ---
Berlin-Brandenburg-Flgh. 46 1016.6 3.3 0.4 3.7 98 ---- --- --- O 5 8 --- ---
Berlin-Tempelhof 48 1016.4 4.0 1.3 4.0 97 0.0 0 0 SO 6 9 Dunst oder flacher Nebel ---
Berlin-Dahlem 51 1016.1 3.3 1.1 4.1 --- ---- 0 0 SO 7 --- stark bewölkt ---
Lindenberg 91 1016.8 3.1 2.4 4.1 98 0.0 0 0 S 4 11 Nebel ---
Düsseldorf-Flh. 45 1012.3 8.6 7.0 9.4 93 1.1 2 --- S 21 28 Regen ---
Essen 150 1012.6 7.9 7.1 9.0 95 0.9 1 0 S 9 21 leichter Regen ---
Kahler Asten 839 ------ 2.9 2.1 3.1 100 0.0 0 0 S 27 36 Nebel ---
Bad Lippspringe 157 1012.9 7.0 0.6 7.4 84 0.0 0 0 SO 7 22 --- ---
Fritzlar 174 1015.7 0.4 -1.6 4.3 97 ---- 0 0 W 4 --- Dunst oder flacher Nebel ---
Brocken 1142 ------ 1.2 0.0 1.2 100 0.0 0 0 SW 46 56 Nebel Windböen
Leipzig-Flh. 142 1016.4 2.6 2.3 7.9 94 0.0 0 0 S 16 21 --- ---
Dresden-Flh. 227 1017.2 3.7 3.7 6.0 92 0.0 0 0 S 14 15 wolkenlos ---
Cottbus 69 1017.0 4.1 1.9 4.7 98 0.0 0 0 SW 5 9 Dunst oder flacher Nebel ---
Görlitz 238 1017.5 4.8 3.9 5.4 95 0.0 1 0 SW 8 10 --- ---
Aachen 231 1012.7 7.9 7.0 9.7 92 0.0 1 0 SW 20 31 Regen ---
Nürburg 485 1014.0 5.7 5.0 6.3 95 0.9 1 0 SW 9 26 leichter Regen ---
Köln/Bonn-Flh. 92 1013.6 7.2 5.9 8.9 93 0.9 1 --- SO 8 18 Regen ---
Gießen/Wettenberg 203 1015.4 4.0 0.7 5.2 98 0.0 0 0 SO 8 13 --- ---
Wasserkuppe 921 ------ 2.0 1.7 3.0 100 0.0 0 0 S 22 28 Nebel ---
Meiningen 450 1017.3 2.3 0.8 5.4 100 0.0 0 0 S 9 15 Nebel ---
Erfurt 316 1016.1 3.2 2.5 7.4 93 0.0 0 --- S 19 23 --- ---
Gera 311 1017.3 2.3 1.8 6.2 98 0.0 0 0 S 20 26 Dunst oder flacher Nebel ---
Fichtelberg 1213 ------ -1.2 -1.2 0.4 97 0.0 1 6 W 26 36 Dunst oder flacher Nebel ---
Trier 265 1014.8 6.6 6.0 7.4 95 1.4 1 0 SW 15 22 leichter Regen ---
Hahn-Flh. 497 1014.4 7.0 3.7 7.2 83 0.0 0 0 SW 19 36 leichter Regen ---
Frankfurt/M-Flh. 112 1016.0 2.9 0.8 6.9 98 0.0 0 0 O 4 6 --- ---
OF-Wetterpark 119 1016.0 2.8 0.1 5.7 98 0.0 0 0 SO 2 5 --- ---
Würzburg 268 1018.0 0.7 0.6 6.5 97 0.0 0 0 S 4 7 Dunst oder flacher Nebel ---
Bamberg 239 1018.4 -0.8 -0.9 4.3 98 0.0 0 0 NO 2 4 gefrierender Nebel ---
Hof 567 1018.6 0.4 0.4 4.9 100 0.0 0 0 SO 11 17 Nebel ---
Weiden 438 1019.0 2.8 0.3 5.3 97 0.0 0 0 S 5 15 Nebel ---
Saarbrücken-Flh. 320 1015.7 6.8 4.7 8.0 83 0.0 0 --- SW 18 30 leichter Regen ---
Karlsruhe-Rheinst. 116 1017.0 0.4 0.3 4.6 97 0.0 0 0 SO 4 7 --- ---
Mannheim 96 1016.2 5.9 2.2 7.4 86 0.0 0 0 S 9 17 --- ---
Stuttgart-Flh. 371 1017.8 -0.3 -1.1 4.3 98 0.0 0 0 NO 2 4 --- ---
Öhringen 276 1017.4 2.0 1.3 6.5 92 0.0 0 0 O 4 8 --- ---
Nürnberg-Flh. 314 1018.6 0.1 -1.4 6.2 97 0.0 0 0 O 12 15 Nebel ---
Regensburg 366 1019.7 1.7 1.6 5.7 99 0.0 0 0 SO 7 14 Nebel ---
Straubing 351 1020.3 -0.6 -1.2 6.2 100 0.0 0 0 S 4 11 gefrierender Nebel ---
Großer Arber 1436 ------ -2.1 -2.4 -0.7 97 0.0 2 37 SW 22 25 wolkenlos ---
Lahr 155 1017.0 5.0 1.6 7.5 92 0.0 0 0 S 8 13 --- ---
Freudenstadt 797 ------ 4.4 1.5 4.5 76 0.0 0 0 SW 14 23 --- ---
Stötten 734 1018.1 2.6 2.0 5.2 90 0.0 0 0 S 11 21 --- ---
Augsburg 462 1019.6 0.4 -1.0 4.0 94 0.0 0 0 SO 9 13 --- ---
München-Flh. 444 1020.2 -0.8 -3.5 5.8 99 0.0 0 0 SO 2 4 Nebel ---
Fürstenzell 476 1020.4 0.6 -0.2 5.2 98 0.0 0 0 SO 3 6 Nebel ---
Feldberg/Schw. 1486 ------ 0.5 -0.1 1.1 93 0.0 0 23 SW 45 66 --- Sturmböen
Konstanz 443 1019.1 3.2 2.1 5.3 98 0.0 0 0 S 2 7 Dunst oder flacher Nebel ---
Kempten 705 1019.8 0.3 -2.3 1.5 84 0.0 0 0 SO 9 22 --- ---
Oberstdorf 806 ------ -2.0 -3.0 1.0 100 0.0 0 0 S 4 9 Dunst oder flacher Nebel ---
Zugspitze 2960 ------ -8.3 -12.3 -8.2 32 ---- --- 50 W 25 36 --- ---
Hohenpeißenberg 977 ------ 4.5 1.6 5.9 43 0.0 0 0 SW 12 18 --- ---

                                                                                                         Tabelle: 19:00 UHR 

STATIONHÖHELUFTD.TEMP.T-MinT-MaxU%RR1RR12SSSDDFFFXWetter+WolkenBöen
UFS TW Ems 0 ------ --- --- --- --- ---- --- --- -- --- --- --- ---
UFS Deutsche Bucht 26 ------ --- --- --- --- ---- --- --- -- --- --- --- ---
Helgoland 4 1017.0 10.9 8.2 10.9 85 0.0 2 0 W 18 31 --- ---
List/Sylt 26 1016.1 6.3 5.1 7.4 99 0.0 2 0 -- --- ---   ---
Schleswig 43 1017.0 7.1 3.9 7.2 98 0.0 2 0 S 9 13 Regen ---
Leuchtturm Kiel 5 1017.1 7.2 5.1 7.4 96 ---- --- --- S 15 20 --- ---
Kiel 27 1017.0 7.5 4.0 7.5 97 0.0 1 0 S 6 10 --- ---
Fehmarn 3 1017.6 6.3 4.9 6.7 98 0.0 2 0 S 8 14 Regen ---
Arkona 42 1019.0 6.6 4.6 6.6 79 0.0 0 0 SO 26 39 --- ---
Norderney 11 ------ --- --- --- --- ---- --- --- -- --- --- --- ---
Leuchtt. Alte Weser 32 1017.3 9.2 6.3 9.9 91 ---- --- --- SW 32 --- --- ---
Cuxhaven 5 1017.5 8.9 5.5 9.4 90 0.0 3 0 -- --- 21 --- ---
Hamburg-Flh 11 1017.9 7.9 4.3 8.2 96 0.0 1 0 S 3 7 Regen ---
Schwerin 59 1018.1 5.4 2.7 5.5 98 0.3 4 0 SW 7 10 Regen ---
Rostock 4 1017.9 5.5 3.2 6.0 95 1.4 2 0 S 9 21 leichter Regen ---
Greifswald 2 1018.9 4.6 3.4 6.1 99 0.0 0 0 SO 12 24 Dunst oder flacher Nebel ---
Emden 0 1018.4 8.1 7.1 10.8 91 0.0 0 0 SW 7 13 --- ---
Bremen-Flh. 5 1018.6 8.1 4.6 10.2 92 0.0 1 --- SW 11 17 Regen ---
Lüchow 17 1018.5 6.4 -0.8 6.7 97 0.0 3 0 SW 5 8 Dunst oder flacher Nebel ---
Marnitz 81 1018.5 5.5 1.1 5.5 99 0.5 3 0 SW 6 12 leichter Regen ---
Waren 70 1018.4 4.8 2.9 5.0 97 1.5 2 0 SO 7 12 Regen ---
Neuruppin 38 1018.6 5.2 1.8 5.2 99 1.1 2 0 O 3 6 --- ---
Angermünde 56 1019.1 3.9 2.0 4.6 100 0.0 0 0 SO 8 14 Nebel ---
Münster/Osnabr.-Flh. 48 1020.0 8.9 5.8 11.1 87 0.0 0 0 SW 10 17 --- ---
Hannover-Flh. 59 1018.8 8.9 5.1 9.5 86 0.0 1 0 SW 12 21 --- ---
Magdeburg 76 1018.9 7.4 1.7 8.9 97 0.1 4 0 W 6 10 Regen ---
Potsdam 81 1018.6 5.9 1.3 7.3 98 0.5 1 0 SW 12 17 leichter Regen ---
Berlin-Brandenburg-Flgh. 46 1018.6 5.1 2.3 6.5 98 ---- --- --- O 4 5 --- ---
Berlin-Tempelhof 48 1018.5 5.7 2.7 6.7 98 0.0 0 0 O 4 5 Regen ---
Berlin-Dahlem 51 1018.4 5.8 2.3 8.4 --- ---- 0 0 S 7 --- leichter Regen ---
Lindenberg 91 1018.7 5.1 3.1 6.9 95 0.0 0 0 SO 8 10 --- ---
Düsseldorf-Flh. 45 1021.4 9.2 7.5 11.9 85 0.0 0 --- SW 14 21 --- ---
Essen 150 1021.1 9.6 7.5 10.7 82 0.0 0 0 SW 12 18 --- ---
Kahler Asten 839 ------ 4.0 2.7 4.2 100 0.0 1 0 W 21 38 Nebel ---
Bad Lippspringe 157 1020.2 8.5 6.9 10.4 86 0.0 1 0 W 9 16 --- ---
Fritzlar 174 1021.2 5.3 0.4 8.8 95 ---- 1 0 S 7 --- bewölkt ---
Brocken 1142 ------ 1.5 0.8 2.3 100 0.1 0 0 W 41 57 Nebel Windböen
Leipzig-Flh. 142 1019.5 6.7 2.3 9.4 93 0.0 2 0 W 15 22 --- ---
Dresden-Flh. 227 1019.9 4.7 2.7 9.1 93 0.1 0 0 S 10 15 leichter Regen ---
Cottbus 69 1019.0 7.3 3.6 10.3 83 0.0 0 0 S 6 11 --- ---
Görlitz 238 1019.9 4.3 3.4 9.0 91 0.0 0 0 SW 9 17 --- ---
Aachen 231 1022.2 8.7 7.2 10.3 84 0.0 0 0 W 18 30 --- ---
Nürburg 485 1022.5 6.5 5.5 8.4 88 0.0 2 0 SW 9 16 --- ---
Köln/Bonn-Flh. 92 1021.6 9.6 6.8 12.1 80 0.0 0 --- W 8 17 Regen ---
Gießen/Wettenberg 203 1021.8 6.1 3.9 8.8 99 0.0 1 0 NO 5 7 Regen ---
Wasserkuppe 921 ------ 3.0 1.9 3.7 100 0.0 3 0 W 17 28 Nebel ---
Meiningen 450 1021.9 3.5 1.8 4.0 100 0.0 0 0 S 8 13 Nebel ---
Erfurt 316 1020.7 4.9 3.2 8.3 94 0.0 0 --- W 11 18 --- ---
Gera 311 1020.0 6.0 2.3 8.5 93 0.0 1 0 SW 13 20 leichter Regen ---
Fichtelberg 1213 ------ 0.3 -1.2 0.5 98 0.6 1 5 W 30 42 Regen ---
Trier 265 1023.5 7.0 6.6 10.7 87 ---- --- 0 SW 9 13 --- ---
Hahn-Flh. 497 1022.9 6.2 5.9 8.1 89 0.0 1 0 W 18 26 --- ---
Frankfurt/M-Flh. 112 1022.1 7.5 2.9 10.2 93 0.0 0 0 SW 11 27 --- ---
OF-Wetterpark 119 1021.9 8.8 2.8 9.7 84 0.0 0 0 SW 7 16 --- ---
Würzburg 268 1022.7 6.1 0.1 6.7 94 0.0 0 0 SW 3 8 --- ---
Bamberg 239 1022.2 5.8 -1.3 7.0 98 0.0 0 0 NO 2 6 Dunst oder flacher Nebel ---
Hof 567 1021.2 4.4 0.3 6.9 94 0.0 0 0 W 10 19 --- ---
Weiden 438 1022.2 4.2 2.8 6.8 95 0.3 1 0 S 3 9 Regen ---
Saarbrücken-Flh. 320 1023.8 6.4 6.1 9.7 88 0.0 1 --- W 10 13 --- ---
Karlsruhe-Rheinst. 116 1023.3 7.8 0.4 9.8 89 0.0 0 0 SW 9 12 --- ---
Mannheim 96 1022.7 7.5 5.8 9.5 94 0.0 1 0 SO 6 12 --- ---
Stuttgart-Flh. 371 1023.3 5.7 -0.7 9.2 82 0.0 0 0 SW 9 11 --- ---
Öhringen 276 1023.1 6.8 1.4 7.7 93 0.0 0 0 SW 7 9 --- ---
Nürnberg-Flh. 314 1022.2 6.4 -1.7 7.5 92 0.0 0 0 W 8 13 --- ---
Regensburg 366 1022.3 5.0 1.6 5.3 96 1.5 3 0 S 4 9 leichter Regen ---
Straubing 351 1022.7 5.0 -1.1 6.7 96 0.6 1 0 W 4 7 leichter Regen ---
Großer Arber 1436 ------ -0.5 -2.5 -0.3 100 0.0 0 36 W 29 44 leichter Schneefall ---
Lahr 155 1024.1 7.8 4.9 11.8 91 0.0 1 0 S 5 11 --- ---
Freudenstadt 797 ------ 3.9 3.2 5.8 94 0.0 1 0 W 12 19 Regen ---
Stötten 734 1023.4 4.0 2.3 7.6 96 0.0 3 0 W 15 24 --- ---
Augsburg 462 1023.5 5.3 0.2 9.0 96 0.0 2 0 W 7 11 Regen ---
München-Flh. 444 1022.9 6.6 -2.0 9.4 95 1.3 2 0 SW 11 15 Regen ---
Fürstenzell 476 1022.8 3.1 -0.8 4.2 100 0.0 0 0 SW 5 8 Nebel ---
Feldberg/Schw. 1486 ------ -0.2 -0.8 1.0 99 0.0 4 21 W 20 23 gefrierender Nebel ---
Konstanz 443 1024.7 4.7 2.7 8.6 97 0.0 0 0 N 4 8 --- ---
Kempten 705 1024.1 5.2 -0.5 10.9 91 0.9 2 0 NW 5 17 leichter Regen ---
Oberstdorf 806 ------ 4.5 -3.4 10.3 91 0.6 1 0 N 6 21 leichter Regen ---
Zugspitze 2960 ------ -8.8 -9.1 -7.0 92 ---- --- --- W 28 44 Schneefall ---
Hohenpeißenberg 977 ------ 3.2 2.6 10.0 99 1.8 3 0 W 21 45 leichter Regen ---

 

  • Wetterzustand
  • Windrichtung und -geschwindigkeit
  • Luftdruck
  • relative Luftfeuchtigkeit
  • Sichtweite
  • Gesamtbedeckungsgrad
  • Niederschlag
  • Sonnenscheindauer

 Höhe:     m über NN
Luftd.:   auf Meereshöhe reduzierter Luftdruck in hPa
TEMP.:   Lufttemperatur in Grad Celsius
T-MIN:   Minimumtemperatur der Luft in 2m Höhe in Grad Celsius, von 18 UTC Vortag bis 06 UTC heute
T-MAX:  Maximumtemperatur der Luft in 2m Höhe in Grad Celsius, von 18 UTC Vortag bis 06 UTC heute
RR1:     Niederschlagsmenge, einstündig, mm ist gleich Liter pro
RR12:   Niederschlagsmenge, 12 stündig, 18 UTC Vortag bis 06 UTC heute in mm ist gleich Liter pro
SSS:     Gesamtschneehöhe
DD:      Windrichtung
FF:       Windgeschwindigkeit letztes 10-Minutenmittel in km/h
FX:       höchste Windspitze während der letzten Stunde in km/h
---:      Wert nicht vorhanden

 

2009-2022

Unwetterwarnungen

Unwetterwarnungen

  Überblick über die aktuelle Warnlage in Deutschland

  Radarbild           

aktueller Radarfilm Deutschland

Mecklenburg Vorpommern/

Brandenburg

aktuelles Wetter und aktuelle Temperatur Region Nordost

Waldbrandgefahr   

Deutschlandkarte mit dem Tageswert des Waldbrand-Gefahrenindex WBI, heute